sensor_id;sensor_type;location;lat;lon;timestamp;temperature;humidity
18163;DHT22;9206;50.994;4.538;2023-01-09T00:01:55;6.50;99.90
18163;DHT22;9206;50.994;4.538;2023-01-09T00:04:47;6.50;99.90
18163;DHT22;9206;50.994;4.538;2023-01-09T00:07:37;6.50;99.90
18163;DHT22;9206;50.994;4.538;2023-01-09T00:10:33;6.50;99.90
18163;DHT22;9206;50.994;4.538;2023-01-09T00:13:22;6.40;99.90
18163;DHT22;9206;50.994;4.538;2023-01-09T00:16:21;6.40;99.90
18163;DHT22;9206;50.994;4.538;2023-01-09T00:19:14;6.40;99.90
18163;DHT22;9206;50.994;4.538;2023-01-09T00:22:04;6.40;99.90
18163;DHT22;9206;50.994;4.538;2023-01-09T00:24:55;6.40;99.90
18163;DHT22;9206;50.994;4.538;2023-01-09T00:27:45;6.40;99.90
18163;DHT22;9206;50.994;4.538;2023-01-09T00:30:34;6.30;99.90
18163;DHT22;9206;50.994;4.538;2023-01-09T00:33:24;6.30;99.90
18163;DHT22;9206;50.994;4.538;2023-01-09T00:36:14;6.40;99.90
18163;DHT22;9206;50.994;4.538;2023-01-09T00:39:04;6.40;99.90
18163;DHT22;9206;50.994;4.538;2023-01-09T00:41:54;6.30;99.90
18163;DHT22;9206;50.994;4.538;2023-01-09T00:44:52;6.30;99.90
18163;DHT22;9206;50.994;4.538;2023-01-09T00:47:43;6.40;99.90
18163;DHT22;9206;50.994;4.538;2023-01-09T00:50:38;6.30;99.90
18163;DHT22;9206;50.994;4.538;2023-01-09T00:53:29;6.30;99.90
18163;DHT22;9206;50.994;4.538;2023-01-09T00:56:21;6.30;99.90
18163;DHT22;9206;50.994;4.538;2023-01-09T00:59:11;6.30;99.90
18163;DHT22;9206;50.994;4.538;2023-01-09T01:02:01;6.30;99.90
18163;DHT22;9206;50.994;4.538;2023-01-09T01:04:49;6.20;99.90
18163;DHT22;9206;50.994;4.538;2023-01-09T01:07:54;6.20;99.90
18163;DHT22;9206;50.994;4.538;2023-01-09T01:10:43;6.30;99.90
18163;DHT22;9206;50.994;4.538;2023-01-09T01:13:32;6.30;99.90
18163;DHT22;9206;50.994;4.538;2023-01-09T01:16:19;6.30;99.90
18163;DHT22;9206;50.994;4.538;2023-01-09T01:19:10;6.30;99.90
18163;DHT22;9206;50.994;4.538;2023-01-09T01:22:03;6.20;99.90
18163;DHT22;9206;50.994;4.538;2023-01-09T01:24:57;6.30;99.90
18163;DHT22;9206;50.994;4.538;2023-01-09T01:27:48;6.30;99.90
18163;DHT22;9206;50.994;4.538;2023-01-09T01:30:39;6.30;99.90
18163;DHT22;9206;50.994;4.538;2023-01-09T01:33:33;6.30;99.90
18163;DHT22;9206;50.994;4.538;2023-01-09T01:36:20;6.30;99.90
18163;DHT22;9206;50.994;4.538;2023-01-09T01:39:11;6.30;99.90
18163;DHT22;9206;50.994;4.538;2023-01-09T01:41:59;6.20;99.90
18163;DHT22;9206;50.994;4.538;2023-01-09T01:45:05;6.20;99.90
18163;DHT22;9206;50.994;4.538;2023-01-09T01:47:58;6.20;99.90
18163;DHT22;9206;50.994;4.538;2023-01-09T01:51:01;6.20;99.90
18163;DHT22;9206;50.994;4.538;2023-01-09T01:53:58;6.20;99.90
18163;DHT22;9206;50.994;4.538;2023-01-09T01:56:51;6.20;99.90
18163;DHT22;9206;50.994;4.538;2023-01-09T01:59:53;6.20;99.90
18163;DHT22;9206;50.994;4.538;2023-01-09T02:02:44;6.10;99.90
18163;DHT22;9206;50.994;4.538;2023-01-09T02:05:34;6.10;99.90
18163;DHT22;9206;50.994;4.538;2023-01-09T02:08:22;6.10;99.90
18163;DHT22;9206;50.994;4.538;2023-01-09T02:11:09;6.10;99.90
18163;DHT22;9206;50.994;4.538;2023-01-09T02:14:04;6.20;99.90
18163;DHT22;9206;50.994;4.538;2023-01-09T02:17:06;6.20;99.90
18163;DHT22;9206;50.994;4.538;2023-01-09T02:20:32;6.10;99.90
18163;DHT22;9206;50.994;4.538;2023-01-09T02:23:48;6.20;99.90
18163;DHT22;9206;50.994;4.538;2023-01-09T02:27:00;6.30;99.90
18163;DHT22;9206;50.994;4.538;2023-01-09T02:33:41;6.40;99.90
18163;DHT22;9206;50.994;4.538;2023-01-09T02:36:37;6.50;99.90
18163;DHT22;9206;50.994;4.538;2023-01-09T02:39:36;6.60;99.90
18163;DHT22;9206;50.994;4.538;2023-01-09T02:42:28;6.60;99.90
18163;DHT22;9206;50.994;4.538;2023-01-09T02:45:19;6.60;99.90
18163;DHT22;9206;50.994;4.538;2023-01-09T02:48:19;6.70;99.90
18163;DHT22;9206;50.994;4.538;2023-01-09T02:51:13;6.60;99.90
18163;DHT22;9206;50.994;4.538;2023-01-09T02:54:27;6.70;99.90
18163;DHT22;9206;50.994;4.538;2023-01-09T02:57:32;6.70;99.90
18163;DHT22;9206;50.994;4.538;2023-01-09T03:00:29;6.70;99.90
18163;DHT22;9206;50.994;4.538;2023-01-09T03:03:22;6.70;99.90
18163;DHT22;9206;50.994;4.538;2023-01-09T03:06:26;6.70;99.90
18163;DHT22;9206;50.994;4.538;2023-01-09T03:09:20;6.80;99.90
18163;DHT22;9206;50.994;4.538;2023-01-09T03:12:13;6.80;99.90
18163;DHT22;9206;50.994;4.538;2023-01-09T03:15:05;6.90;99.90
18163;DHT22;9206;50.994;4.538;2023-01-09T03:17:56;6.80;99.90
18163;DHT22;9206;50.994;4.538;2023-01-09T03:20:47;6.90;99.90
18163;DHT22;9206;50.994;4.538;2023-01-09T03:23:49;6.90;99.90
18163;DHT22;9206;50.994;4.538;2023-01-09T03:26:39;7.00;99.90
18163;DHT22;9206;50.994;4.538;2023-01-09T03:29:27;7.00;99.90
18163;DHT22;9206;50.994;4.538;2023-01-09T03:32:18;7.00;99.90
18163;DHT22;9206;50.994;4.538;2023-01-09T03:35:07;6.90;99.90
18163;DHT22;9206;50.994;4.538;2023-01-09T03:37:58;7.00;99.90
18163;DHT22;9206;50.994;4.538;2023-01-09T03:40:52;7.10;99.90
18163;DHT22;9206;50.994;4.538;2023-01-09T03:43:42;7.10;99.90
18163;DHT22;9206;50.994;4.538;2023-01-09T03:46:35;7.10;99.90
18163;DHT22;9206;50.994;4.538;2023-01-09T03:49:24;7.10;99.90
18163;DHT22;9206;50.994;4.538;2023-01-09T03:52:17;7.10;99.90
18163;DHT22;9206;50.994;4.538;2023-01-09T03:55:07;7.10;99.90
18163;DHT22;9206;50.994;4.538;2023-01-09T03:57:58;7.20;99.90
18163;DHT22;9206;50.994;4.538;2023-01-09T04:00:49;7.10;99.90
18163;DHT22;9206;50.994;4.538;2023-01-09T04:03:37;7.20;99.90
18163;DHT22;9206;50.994;4.538;2023-01-09T04:06:28;7.20;99.90
18163;DHT22;9206;50.994;4.538;2023-01-09T04:09:23;7.20;99.90
18163;DHT22;9206;50.994;4.538;2023-01-09T04:12:11;7.20;99.90
18163;DHT22;9206;50.994;4.538;2023-01-09T04:15:04;7.20;99.90
18163;DHT22;9206;50.994;4.538;2023-01-09T04:17:55;7.20;99.90
18163;DHT22;9206;50.994;4.538;2023-01-09T04:20:46;7.30;99.90
18163;DHT22;9206;50.994;4.538;2023-01-09T04:23:34;7.30;99.90
18163;DHT22;9206;50.994;4.538;2023-01-09T04:26:22;7.30;99.90
18163;DHT22;9206;50.994;4.538;2023-01-09T04:29:10;7.40;99.90
18163;DHT22;9206;50.994;4.538;2023-01-09T04:31:58;7.50;99.90
18163;DHT22;9206;50.994;4.538;2023-01-09T04:34:46;7.50;99.90
18163;DHT22;9206;50.994;4.538;2023-01-09T04:37:33;7.50;99.90
18163;DHT22;9206;50.994;4.538;2023-01-09T04:40:27;7.50;99.90
18163;DHT22;9206;50.994;4.538;2023-01-09T04:43:14;7.50;99.90
18163;DHT22;9206;50.994;4.538;2023-01-09T04:46:02;7.60;99.90
18163;DHT22;9206;50.994;4.538;2023-01-09T04:48:56;7.60;99.90
18163;DHT22;9206;50.994;4.538;2023-01-09T04:51:51;7.60;99.90
18163;DHT22;9206;50.994;4.538;2023-01-09T04:54:52;7.60;99.90
18163;DHT22;9206;50.994;4.538;2023-01-09T04:57:45;7.60;99.90
18163;DHT22;9206;50.994;4.538;2023-01-09T05:00:34;7.60;99.90
18163;DHT22;9206;50.994;4.538;2023-01-09T05:03:21;7.60;99.90
18163;DHT22;9206;50.994;4.538;2023-01-09T05:06:16;7.70;99.90
18163;DHT22;9206;50.994;4.538;2023-01-09T05:09:09;7.70;99.90
18163;DHT22;9206;50.994;4.538;2023-01-09T05:12:02;7.70;99.90
18163;DHT22;9206;50.994;4.538;2023-01-09T05:14:50;7.70;99.90
18163;DHT22;9206;50.994;4.538;2023-01-09T05:17:45;7.70;99.90
18163;DHT22;9206;50.994;4.538;2023-01-09T05:20:36;7.70;99.90
18163;DHT22;9206;50.994;4.538;2023-01-09T05:23:24;7.70;99.90
18163;DHT22;9206;50.994;4.538;2023-01-09T05:26:14;7.70;99.90
18163;DHT22;9206;50.994;4.538;2023-01-09T05:29:01;7.70;99.90
18163;DHT22;9206;50.994;4.538;2023-01-09T05:31:48;7.60;99.90
18163;DHT22;9206;50.994;4.538;2023-01-09T05:34:40;7.60;99.90
18163;DHT22;9206;50.994;4.538;2023-01-09T05:37:30;7.60;99.90
18163;DHT22;9206;50.994;4.538;2023-01-09T05:40:21;7.50;99.90
18163;DHT22;9206;50.994;4.538;2023-01-09T05:43:11;7.50;99.90
18163;DHT22;9206;50.994;4.538;2023-01-09T05:45:59;7.40;99.90
18163;DHT22;9206;50.994;4.538;2023-01-09T05:48:48;7.40;99.90
18163;DHT22;9206;50.994;4.538;2023-01-09T05:51:44;7.40;99.90
18163;DHT22;9206;50.994;4.538;2023-01-09T05:54:32;7.40;99.90
18163;DHT22;9206;50.994;4.538;2023-01-09T05:57:27;7.40;99.90
18163;DHT22;9206;50.994;4.538;2023-01-09T06:00:16;7.40;99.90
18163;DHT22;9206;50.994;4.538;2023-01-09T06:03:04;7.40;99.90
18163;DHT22;9206;50.994;4.538;2023-01-09T06:05:57;7.40;99.90
18163;DHT22;9206;50.994;4.538;2023-01-09T06:08:44;7.40;99.90
18163;DHT22;9206;50.994;4.538;2023-01-09T06:11:38;7.40;99.90
18163;DHT22;9206;50.994;4.538;2023-01-09T06:14:29;7.30;99.90
18163;DHT22;9206;50.994;4.538;2023-01-09T06:17:20;7.20;99.90
18163;DHT22;9206;50.994;4.538;2023-01-09T06:20:10;7.20;99.90
18163;DHT22;9206;50.994;4.538;2023-01-09T06:22:58;7.20;99.90
18163;DHT22;9206;50.994;4.538;2023-01-09T06:25:51;7.20;99.90
18163;DHT22;9206;50.994;4.538;2023-01-09T06:28:42;7.30;99.90
18163;DHT22;9206;50.994;4.538;2023-01-09T06:31:36;7.30;99.90
18163;DHT22;9206;50.994;4.538;2023-01-09T06:34:23;7.30;99.90
18163;DHT22;9206;50.994;4.538;2023-01-09T06:37:13;7.30;99.90
18163;DHT22;9206;50.994;4.538;2023-01-09T06:40:02;7.30;99.90
18163;DHT22;9206;50.994;4.538;2023-01-09T06:42:49;7.30;99.90
18163;DHT22;9206;50.994;4.538;2023-01-09T06:45:37;7.30;99.90
18163;DHT22;9206;50.994;4.538;2023-01-09T06:48:26;7.30;99.90
18163;DHT22;9206;50.994;4.538;2023-01-09T06:51:26;7.20;99.90
18163;DHT22;9206;50.994;4.538;2023-01-09T06:54:24;7.20;99.90
18163;DHT22;9206;50.994;4.538;2023-01-09T06:57:12;7.20;99.90
18163;DHT22;9206;50.994;4.538;2023-01-09T07:00:02;7.20;99.90
18163;DHT22;9206;50.994;4.538;2023-01-09T07:02:51;7.20;99.90
18163;DHT22;9206;50.994;4.538;2023-01-09T07:05:41;7.30;99.90
18163;DHT22;9206;50.994;4.538;2023-01-09T07:08:31;7.30;99.90
18163;DHT22;9206;50.994;4.538;2023-01-09T07:11:21;7.40;99.90
18163;DHT22;9206;50.994;4.538;2023-01-09T07:14:11;7.30;99.90
18163;DHT22;9206;50.994;4.538;2023-01-09T07:16:58;7.30;99.90
18163;DHT22;9206;50.994;4.538;2023-01-09T07:19:51;7.40;99.90
18163;DHT22;9206;50.994;4.538;2023-01-09T07:22:46;7.40;99.90
18163;DHT22;9206;50.994;4.538;2023-01-09T07:25:33;7.40;99.90
18163;DHT22;9206;50.994;4.538;2023-01-09T07:28:21;7.40;99.90
18163;DHT22;9206;50.994;4.538;2023-01-09T07:31:08;7.30;99.90
18163;DHT22;9206;50.994;4.538;2023-01-09T07:34:01;7.40;99.90
18163;DHT22;9206;50.994;4.538;2023-01-09T07:36:48;7.40;99.90
18163;DHT22;9206;50.994;4.538;2023-01-09T07:39:37;7.50;99.90
18163;DHT22;9206;50.994;4.538;2023-01-09T07:42:27;7.40;99.90
18163;DHT22;9206;50.994;4.538;2023-01-09T07:45:20;7.40;99.90
18163;DHT22;9206;50.994;4.538;2023-01-09T07:48:10;7.40;99.90
18163;DHT22;9206;50.994;4.538;2023-01-09T07:51:00;7.40;99.90
18163;DHT22;9206;50.994;4.538;2023-01-09T07:53:48;7.40;99.90
18163;DHT22;9206;50.994;4.538;2023-01-09T07:56:37;7.40;99.90
18163;DHT22;9206;50.994;4.538;2023-01-09T07:59:27;7.50;99.90
18163;DHT22;9206;50.994;4.538;2023-01-09T08:02:14;7.50;99.90
18163;DHT22;9206;50.994;4.538;2023-01-09T08:05:04;7.50;99.90
18163;DHT22;9206;50.994;4.538;2023-01-09T08:08:02;7.60;99.90
18163;DHT22;9206;50.994;4.538;2023-01-09T08:10:53;7.60;99.90
18163;DHT22;9206;50.994;4.538;2023-01-09T08:13:47;7.60;99.90
18163;DHT22;9206;50.994;4.538;2023-01-09T08:16:36;7.60;99.90
18163;DHT22;9206;50.994;4.538;2023-01-09T08:19:24;7.60;99.90
18163;DHT22;9206;50.994;4.538;2023-01-09T08:22:14;7.60;99.90
18163;DHT22;9206;50.994;4.538;2023-01-09T08:25:16;7.60;99.90
18163;DHT22;9206;50.994;4.538;2023-01-09T08:28:15;7.60;99.90
18163;DHT22;9206;50.994;4.538;2023-01-09T08:31:05;7.60;99.90
18163;DHT22;9206;50.994;4.538;2023-01-09T08:33:58;7.60;99.90
18163;DHT22;9206;50.994;4.538;2023-01-09T08:36:47;7.60;99.90
18163;DHT22;9206;50.994;4.538;2023-01-09T08:39:37;7.60;99.90
18163;DHT22;9206;50.994;4.538;2023-01-09T08:42:25;7.60;99.90
18163;DHT22;9206;50.994;4.538;2023-01-09T08:45:33;7.60;99.90
18163;DHT22;9206;50.994;4.538;2023-01-09T08:48:46;7.60;99.90
18163;DHT22;9206;50.994;4.538;2023-01-09T08:51:33;7.60;99.90
18163;DHT22;9206;50.994;4.538;2023-01-09T08:54:21;7.60;99.90
18163;DHT22;9206;50.994;4.538;2023-01-09T08:57:08;7.60;99.90
18163;DHT22;9206;50.994;4.538;2023-01-09T08:59:57;7.60;99.90
18163;DHT22;9206;50.994;4.538;2023-01-09T09:02:51;7.60;99.90
18163;DHT22;9206;50.994;4.538;2023-01-09T09:05:47;7.70;99.90
18163;DHT22;9206;50.994;4.538;2023-01-09T09:08:36;7.60;99.90
18163;DHT22;9206;50.994;4.538;2023-01-09T09:11:29;7.60;99.90
18163;DHT22;9206;50.994;4.538;2023-01-09T09:14:17;7.60;99.90
18163;DHT22;9206;50.994;4.538;2023-01-09T09:17:24;7.60;99.90
18163;DHT22;9206;50.994;4.538;2023-01-09T09:20:22;7.60;99.90
18163;DHT22;9206;50.994;4.538;2023-01-09T09:23:13;7.70;99.90
18163;DHT22;9206;50.994;4.538;2023-01-09T09:26:01;7.70;99.90
18163;DHT22;9206;50.994;4.538;2023-01-09T09:28:51;7.70;99.90
18163;DHT22;9206;50.994;4.538;2023-01-09T09:31:40;7.80;99.90
18163;DHT22;9206;50.994;4.538;2023-01-09T09:34:28;7.90;99.90
18163;DHT22;9206;50.994;4.538;2023-01-09T09:37:18;7.90;99.90
18163;DHT22;9206;50.994;4.538;2023-01-09T09:40:15;7.80;99.90
18163;DHT22;9206;50.994;4.538;2023-01-09T09:43:28;7.80;99.90
18163;DHT22;9206;50.994;4.538;2023-01-09T09:46:46;7.80;99.90
18163;DHT22;9206;50.994;4.538;2023-01-09T09:49:45;7.80;99.90
18163;DHT22;9206;50.994;4.538;2023-01-09T09:52:46;7.70;99.90
18163;DHT22;9206;50.994;4.538;2023-01-09T09:55:41;7.70;99.90
18163;DHT22;9206;50.994;4.538;2023-01-09T09:58:35;7.70;99.90
18163;DHT22;9206;50.994;4.538;2023-01-09T10:01:32;7.70;99.90
18163;DHT22;9206;50.994;4.538;2023-01-09T10:04:23;7.60;99.90
18163;DHT22;9206;50.994;4.538;2023-01-09T10:07:17;7.70;99.90
18163;DHT22;9206;50.994;4.538;2023-01-09T10:10:13;7.70;99.90
18163;DHT22;9206;50.994;4.538;2023-01-09T10:26:43;7.90;99.90
18163;DHT22;9206;50.994;4.538;2023-01-09T10:29:48;7.90;99.90
18163;DHT22;9206;50.994;4.538;2023-01-09T10:32:49;7.90;99.90
18163;DHT22;9206;50.994;4.538;2023-01-09T10:35:53;8.00;99.90
18163;DHT22;9206;50.994;4.538;2023-01-09T10:38:48;7.90;99.90
18163;DHT22;9206;50.994;4.538;2023-01-09T10:41:40;7.80;99.90
18163;DHT22;9206;50.994;4.538;2023-01-09T10:44:40;7.80;99.90
18163;DHT22;9206;50.994;4.538;2023-01-09T10:47:32;7.80;99.90
18163;DHT22;9206;50.994;4.538;2023-01-09T10:50:30;7.80;99.90
18163;DHT22;9206;50.994;4.538;2023-01-09T10:53:38;7.80;99.90
18163;DHT22;9206;50.994;4.538;2023-01-09T10:56:38;7.90;99.90
18163;DHT22;9206;50.994;4.538;2023-01-09T10:59:34;7.90;99.90
18163;DHT22;9206;50.994;4.538;2023-01-09T11:02:32;7.90;99.90
18163;DHT22;9206;50.994;4.538;2023-01-09T11:05:25;7.90;99.90
18163;DHT22;9206;50.994;4.538;2023-01-09T11:08:22;7.90;99.90
18163;DHT22;9206;50.994;4.538;2023-01-09T11:11:10;8.10;99.90
18163;DHT22;9206;50.994;4.538;2023-01-09T11:14:12;8.50;99.90
18163;DHT22;9206;50.994;4.538;2023-01-09T11:17:02;8.70;99.90
18163;DHT22;9206;50.994;4.538;2023-01-09T11:20:05;8.60;99.90
18163;DHT22;9206;50.994;4.538;2023-01-09T11:22:57;8.40;99.90
18163;DHT22;9206;50.994;4.538;2023-01-09T11:25:51;8.30;99.90
18163;DHT22;9206;50.994;4.538;2023-01-09T11:28:41;8.10;99.90
18163;DHT22;9206;50.994;4.538;2023-01-09T11:31:29;8.20;99.90
18163;DHT22;9206;50.994;4.538;2023-01-09T11:34:20;8.30;99.90
18163;DHT22;9206;50.994;4.538;2023-01-09T11:37:11;8.40;99.90
18163;DHT22;9206;50.994;4.538;2023-01-09T11:40:16;8.60;99.90
18163;DHT22;9206;50.994;4.538;2023-01-09T11:43:14;9.00;99.90
18163;DHT22;9206;50.994;4.538;2023-01-09T11:46:06;9.20;99.90
18163;DHT22;9206;50.994;4.538;2023-01-09T11:48:55;9.20;99.90
18163;DHT22;9206;50.994;4.538;2023-01-09T11:51:45;9.80;99.90
18163;DHT22;9206;50.994;4.538;2023-01-09T11:54:34;9.90;99.90
18163;DHT22;9206;50.994;4.538;2023-01-09T11:57:23;9.90;99.90
18163;DHT22;9206;50.994;4.538;2023-01-09T12:00:24;10.10;99.90
18163;DHT22;9206;50.994;4.538;2023-01-09T12:03:14;9.80;99.90
18163;DHT22;9206;50.994;4.538;2023-01-09T12:06:13;9.50;99.90
18163;DHT22;9206;50.994;4.538;2023-01-09T12:09:15;9.10;99.90
18163;DHT22;9206;50.994;4.538;2023-01-09T12:12:14;8.80;99.90
18163;DHT22;9206;50.994;4.538;2023-01-09T12:15:19;8.70;99.90
18163;DHT22;9206;50.994;4.538;2023-01-09T12:18:26;8.90;99.90
18163;DHT22;9206;50.994;4.538;2023-01-09T12:21:27;9.30;99.90
18163;DHT22;9206;50.994;4.538;2023-01-09T12:24:40;9.20;99.90
18163;DHT22;9206;50.994;4.538;2023-01-09T12:27:36;9.10;99.90
18163;DHT22;9206;50.994;4.538;2023-01-09T12:30:46;9.00;99.90
18163;DHT22;9206;50.994;4.538;2023-01-09T12:33:45;8.80;99.90
18163;DHT22;9206;50.994;4.538;2023-01-09T12:36:46;8.70;99.90
18163;DHT22;9206;50.994;4.538;2023-01-09T12:39:43;8.80;99.90
18163;DHT22;9206;50.994;4.538;2023-01-09T12:42:42;8.80;99.90
18163;DHT22;9206;50.994;4.538;2023-01-09T12:45:39;8.80;99.90
18163;DHT22;9206;50.994;4.538;2023-01-09T12:48:45;8.70;99.90
18163;DHT22;9206;50.994;4.538;2023-01-09T12:51:36;8.70;99.90
18163;DHT22;9206;50.994;4.538;2023-01-09T12:54:36;8.80;99.90
18163;DHT22;9206;50.994;4.538;2023-01-09T12:57:29;8.80;99.90
18163;DHT22;9206;50.994;4.538;2023-01-09T13:00:22;8.80;99.90
18163;DHT22;9206;50.994;4.538;2023-01-09T13:03:16;8.70;99.90
18163;DHT22;9206;50.994;4.538;2023-01-09T13:06:15;8.60;99.90
18163;DHT22;9206;50.994;4.538;2023-01-09T13:09:13;8.60;99.90
18163;DHT22;9206;50.994;4.538;2023-01-09T13:12:09;8.80;99.90
18163;DHT22;9206;50.994;4.538;2023-01-09T13:15:00;9.10;99.90
18163;DHT22;9206;50.994;4.538;2023-01-09T13:17:56;9.20;99.90
18163;DHT22;9206;50.994;4.538;2023-01-09T13:20:47;9.40;99.90
18163;DHT22;9206;50.994;4.538;2023-01-09T13:23:42;9.50;99.90
18163;DHT22;9206;50.994;4.538;2023-01-09T13:26:35;9.60;99.90
18163;DHT22;9206;50.994;4.538;2023-01-09T13:29:28;9.60;99.90
18163;DHT22;9206;50.994;4.538;2023-01-09T13:32:34;9.60;99.90
18163;DHT22;9206;50.994;4.538;2023-01-09T13:35:31;10.60;99.90
18163;DHT22;9206;50.994;4.538;2023-01-09T13:38:54;10.60;99.90
18163;DHT22;9206;50.994;4.538;2023-01-09T13:42:04;10.40;99.90
18163;DHT22;9206;50.994;4.538;2023-01-09T13:45:18;10.10;99.90
18163;DHT22;9206;50.994;4.538;2023-01-09T14:01:46;16.20;99.90
18163;DHT22;9206;50.994;4.538;2023-01-09T14:04:51;15.10;99.90
18163;DHT22;9206;50.994;4.538;2023-01-09T14:07:48;15.00;99.90
18163;DHT22;9206;50.994;4.538;2023-01-09T14:10:45;14.40;99.90
18163;DHT22;9206;50.994;4.538;2023-01-09T14:13:39;14.30;99.90
18163;DHT22;9206;50.994;4.538;2023-01-09T14:16:31;14.20;99.90
18163;DHT22;9206;50.994;4.538;2023-01-09T14:19:33;13.80;99.90
18163;DHT22;9206;50.994;4.538;2023-01-09T14:22:33;12.80;99.90
18163;DHT22;9206;50.994;4.538;2023-01-09T14:25:24;11.80;99.90
18163;DHT22;9206;50.994;4.538;2023-01-09T14:28:21;11.20;99.90
18163;DHT22;9206;50.994;4.538;2023-01-09T14:31:26;10.60;99.90
18163;DHT22;9206;50.994;4.538;2023-01-09T14:34:25;10.20;99.90
18163;DHT22;9206;50.994;4.538;2023-01-09T14:37:14;9.80;99.90
18163;DHT22;9206;50.994;4.538;2023-01-09T14:40:05;9.70;99.90
18163;DHT22;9206;50.994;4.538;2023-01-09T14:43:11;9.50;99.90
18163;DHT22;9206;50.994;4.538;2023-01-09T14:46:05;9.30;99.90
18163;DHT22;9206;50.994;4.538;2023-01-09T14:49:06;9.20;99.90
18163;DHT22;9206;50.994;4.538;2023-01-09T14:51:58;9.10;99.90
18163;DHT22;9206;50.994;4.538;2023-01-09T14:55:03;8.80;99.90
18163;DHT22;9206;50.994;4.538;2023-01-09T14:57:59;8.60;99.90
18163;DHT22;9206;50.994;4.538;2023-01-09T15:00:58;8.40;99.90
18163;DHT22;9206;50.994;4.538;2023-01-09T15:03:51;8.30;99.90
18163;DHT22;9206;50.994;4.538;2023-01-09T15:06:44;8.40;99.90
18163;DHT22;9206;50.994;4.538;2023-01-09T15:09:42;8.50;99.90
18163;DHT22;9206;50.994;4.538;2023-01-09T15:12:39;8.50;99.90
18163;DHT22;9206;50.994;4.538;2023-01-09T15:15:30;8.40;99.90
18163;DHT22;9206;50.994;4.538;2023-01-09T15:18:26;8.40;99.90
18163;DHT22;9206;50.994;4.538;2023-01-09T15:21:20;8.40;99.90
18163;DHT22;9206;50.994;4.538;2023-01-09T15:24:20;8.30;99.90
18163;DHT22;9206;50.994;4.538;2023-01-09T15:27:12;8.30;99.90
18163;DHT22;9206;50.994;4.538;2023-01-09T15:30:15;8.30;99.90
18163;DHT22;9206;50.994;4.538;2023-01-09T15:33:12;8.30;99.90
18163;DHT22;9206;50.994;4.538;2023-01-09T15:36:06;8.20;99.90
18163;DHT22;9206;50.994;4.538;2023-01-09T15:39:00;8.20;99.90
18163;DHT22;9206;50.994;4.538;2023-01-09T15:41:56;8.20;99.90
18163;DHT22;9206;50.994;4.538;2023-01-09T15:45:11;8.10;99.90
18163;DHT22;9206;50.994;4.538;2023-01-09T15:48:14;8.10;99.90
18163;DHT22;9206;50.994;4.538;2023-01-09T15:51:13;8.10;99.90
18163;DHT22;9206;50.994;4.538;2023-01-09T15:54:05;8.00;99.90
18163;DHT22;9206;50.994;4.538;2023-01-09T15:57:31;7.90;99.90
18163;DHT22;9206;50.994;4.538;2023-01-09T16:00:37;7.90;99.90
18163;DHT22;9206;50.994;4.538;2023-01-09T16:03:36;7.90;99.90
18163;DHT22;9206;50.994;4.538;2023-01-09T16:06:34;7.80;99.90
18163;DHT22;9206;50.994;4.538;2023-01-09T16:09:29;7.70;99.90
18163;DHT22;9206;50.994;4.538;2023-01-09T16:12:18;7.70;99.90
18163;DHT22;9206;50.994;4.538;2023-01-09T16:15:15;7.60;99.90
18163;DHT22;9206;50.994;4.538;2023-01-09T16:18:18;7.60;99.90
18163;DHT22;9206;50.994;4.538;2023-01-09T16:21:37;7.60;99.90
18163;DHT22;9206;50.994;4.538;2023-01-09T16:24:33;7.60;99.90
18163;DHT22;9206;50.994;4.538;2023-01-09T16:27:23;7.60;99.90
18163;DHT22;9206;50.994;4.538;2023-01-09T16:30:24;7.50;99.90
18163;DHT22;9206;50.994;4.538;2023-01-09T16:33:21;7.50;99.90
18163;DHT22;9206;50.994;4.538;2023-01-09T16:36:11;7.50;99.90
18163;DHT22;9206;50.994;4.538;2023-01-09T16:39:00;7.40;99.90
18163;DHT22;9206;50.994;4.538;2023-01-09T16:41:50;7.40;99.90
18163;DHT22;9206;50.994;4.538;2023-01-09T16:44:58;7.40;99.90
18163;DHT22;9206;50.994;4.538;2023-01-09T16:47:48;7.30;99.90
18163;DHT22;9206;50.994;4.538;2023-01-09T16:50:41;7.30;99.90
18163;DHT22;9206;50.994;4.538;2023-01-09T16:53:29;7.30;99.90
18163;DHT22;9206;50.994;4.538;2023-01-09T16:56:19;7.30;99.90
18163;DHT22;9206;50.994;4.538;2023-01-09T16:59:10;7.30;99.90
18163;DHT22;9206;50.994;4.538;2023-01-09T17:05:54;7.20;99.90
18163;DHT22;9206;50.994;4.538;2023-01-09T17:08:42;7.10;99.90
18163;DHT22;9206;50.994;4.538;2023-01-09T17:11:33;7.10;99.90
18163;DHT22;9206;50.994;4.538;2023-01-09T17:14:26;7.10;99.90
18163;DHT22;9206;50.994;4.538;2023-01-09T17:17:19;7.10;99.90
18163;DHT22;9206;50.994;4.538;2023-01-09T17:20:14;7.10;99.90
18163;DHT22;9206;50.994;4.538;2023-01-09T17:23:03;7.00;99.90
18163;DHT22;9206;50.994;4.538;2023-01-09T17:25:56;6.90;99.90
18163;DHT22;9206;50.994;4.538;2023-01-09T17:29:02;6.90;99.90
18163;DHT22;9206;50.994;4.538;2023-01-09T17:31:50;6.80;99.90
18163;DHT22;9206;50.994;4.538;2023-01-09T17:34:43;6.80;99.90
18163;DHT22;9206;50.994;4.538;2023-01-09T17:37:32;6.80;99.90
18163;DHT22;9206;50.994;4.538;2023-01-09T17:40:23;6.80;99.90
18163;DHT22;9206;50.994;4.538;2023-01-09T17:43:14;6.70;99.90
18163;DHT22;9206;50.994;4.538;2023-01-09T17:46:01;6.70;99.90
18163;DHT22;9206;50.994;4.538;2023-01-09T17:48:49;6.70;99.90
18163;DHT22;9206;50.994;4.538;2023-01-09T17:51:38;6.70;99.90
18163;DHT22;9206;50.994;4.538;2023-01-09T17:54:25;6.70;99.90
18163;DHT22;9206;50.994;4.538;2023-01-09T17:57:16;6.70;99.90
18163;DHT22;9206;50.994;4.538;2023-01-09T18:00:22;6.70;99.90
18163;DHT22;9206;50.994;4.538;2023-01-09T18:03:15;6.80;99.90
18163;DHT22;9206;50.994;4.538;2023-01-09T18:06:05;6.80;99.90
18163;DHT22;9206;50.994;4.538;2023-01-09T18:08:55;6.80;99.90
18163;DHT22;9206;50.994;4.538;2023-01-09T18:11:43;6.80;99.90
18163;DHT22;9206;50.994;4.538;2023-01-09T18:14:33;6.80;99.90
18163;DHT22;9206;50.994;4.538;2023-01-09T18:17:22;6.90;99.90
18163;DHT22;9206;50.994;4.538;2023-01-09T18:20:12;6.80;99.90
18163;DHT22;9206;50.994;4.538;2023-01-09T18:22:59;6.80;99.90
18163;DHT22;9206;50.994;4.538;2023-01-09T18:25:52;6.80;99.90
18163;DHT22;9206;50.994;4.538;2023-01-09T18:28:42;6.80;99.90
18163;DHT22;9206;50.994;4.538;2023-01-09T18:31:31;6.80;99.90
18163;DHT22;9206;50.994;4.538;2023-01-09T18:34:18;6.80;99.90
18163;DHT22;9206;50.994;4.538;2023-01-09T18:37:05;6.80;99.90
18163;DHT22;9206;50.994;4.538;2023-01-09T18:39:58;6.80;99.90
18163;DHT22;9206;50.994;4.538;2023-01-09T18:42:51;6.90;99.90
18163;DHT22;9206;50.994;4.538;2023-01-09T18:45:39;6.80;99.90
18163;DHT22;9206;50.994;4.538;2023-01-09T18:48:30;6.80;99.90
18163;DHT22;9206;50.994;4.538;2023-01-09T18:51:17;6.80;99.90
18163;DHT22;9206;50.994;4.538;2023-01-09T18:54:05;6.70;99.90
18163;DHT22;9206;50.994;4.538;2023-01-09T18:56:53;6.70;99.90
18163;DHT22;9206;50.994;4.538;2023-01-09T18:59:42;6.70;99.90
18163;DHT22;9206;50.994;4.538;2023-01-09T19:02:31;6.60;99.90
18163;DHT22;9206;50.994;4.538;2023-01-09T19:05:20;6.60;99.90
18163;DHT22;9206;50.994;4.538;2023-01-09T19:08:11;6.50;99.90
18163;DHT22;9206;50.994;4.538;2023-01-09T19:10:59;6.40;99.90
18163;DHT22;9206;50.994;4.538;2023-01-09T19:13:46;6.40;99.90
18163;DHT22;9206;50.994;4.538;2023-01-09T19:16:36;6.30;99.90
18163;DHT22;9206;50.994;4.538;2023-01-09T19:19:24;6.20;99.90
18163;DHT22;9206;50.994;4.538;2023-01-09T19:22:14;6.10;99.90
18163;DHT22;9206;50.994;4.538;2023-01-09T19:25:05;6.00;99.90
18163;DHT22;9206;50.994;4.538;2023-01-09T19:27:53;6.00;99.90
18163;DHT22;9206;50.994;4.538;2023-01-09T19:30:41;5.90;99.90